Flight Track Log - Related Links

Times and Time Zones

All times are in EDT time to prevent confusion due to time zone crossing. See the SWA3943 flight status page for this flight to view local times or setup timezone preferences in your user account.

Time Position Orientation Groundspeed Altitude Reporting Facility
EDT Latitude Longitude Course Direction KTS MPH feet Rate Location/Type
Fri 06:34:33 PM 28.4167 -81.3167 221° Southwest 174 200 1,000  Level Orlando TRACON
Fri 06:34:57 PM 28.4000 -81.3333 221° Southwest 182 209 1,700 2,214 Climbing Orlando TRACON
Fri 06:35:57 PM 28.3333 -81.3500 192° South 227 261 4,100 2,600 Climbing Orlando TRACON
Fri 06:36:57 PM 28.3333 -81.4167 270° West 247 284 6,900 2,900 Climbing Orlando TRACON
Fri 06:37:57 PM 28.3500 -81.5000 283° West 284 327 9,900 2,260 Climbing Orlando TRACON
Fri 06:39:31 PM 28.3694 -81.6706 277° West 340 391 12,700 2,065 Climbing Jacksonville Center
Fri 06:40:31 PM 28.3706 -81.7839 271° West 353 406 15,200 2,550 Climbing Jacksonville Center
Fri 06:41:31 PM 28.3653 -81.8994 267° West 363 418 17,800 2,331 Climbing Jacksonville Center
Fri 06:42:32 PM 28.3597 -82.0197 267° West 379 436 19,900 2,628 Climbing Jacksonville Center
Fri 06:43:32 PM 28.3542 -82.1261 267° West 387 445 23,100 2,269 Climbing Jacksonville Center
Fri 06:44:31 PM 28.3486 -82.2439 267° West 382 440 24,400 1,150 Climbing Jacksonville Center
Fri 06:45:32 PM 28.3825 -82.3547 289° West 382 440 25,400 1,200 Climbing Jacksonville Center
Fri 06:46:31 PM 28.4767 -82.4414 321° Northwest 377 434 26,800 1,866 Climbing Jacksonville Center
Fri 06:47:31 PM 28.5708 -82.5286 321° Northwest 405 466 29,100 2,430 Climbing Jacksonville Center
Fri 06:48:32 PM 28.6775 -82.5589 346° North 405 466 31,700 1,700 Climbing Jacksonville Center
Fri 06:49:31 PM 28.7964 -82.5444 North 400 460 32,500 850 Climbing Jacksonville Center
Fri 06:50:32 PM 28.9217 -82.5272 North 412 474 33,400 744 Climbing Jacksonville Center
Fri 06:51:32 PM 29.0467 -82.5150 North 435 501 34,000 300 Climbing Jacksonville Center
Fri 06:52:32 PM 29.1678 -82.5264 355° North 441 507 34,000  Level Jacksonville Center
Fri 06:53:32 PM 29.2889 -82.5353 356° North 441 507 34,000  Level Jacksonville Center
Fri 06:54:31 PM 29.4100 -82.5469 355° North 441 507 34,000 50 Level Jacksonville Center
Fri 06:55:32 PM 29.5311 -82.5631 353° North 441 507 34,100 446 Climbing Jacksonville Center
Fri 06:56:32 PM 29.6522 -82.5772 354° North 441 507 34,900 400 Climbing Jacksonville Center
Fri 06:57:32 PM 29.7733 -82.5911 354° North 441 507 34,900 50 Level Jacksonville Center
Fri 06:58:32 PM 29.8944 -82.6075 353° North 441 507 35,000 50 Climbing Jacksonville Center
Fri 06:59:32 PM 30.0053 -82.6214 354° North 448 516 35,000  Level Jacksonville Center
Fri 07:00:32 PM 30.1514 -82.6450 352° North 443 510 35,000  Level Jacksonville Center
Fri 07:01:32 PM 30.2789 -82.6544 356° North 443 510 35,000  Level Jacksonville Center
Fri 07:02:32 PM 30.4000 -82.6711 353° North 443 510 35,000 -50 Level Jacksonville Center
Fri 07:03:32 PM 30.5231 -82.6803 356° North 443 510 34,900  Descending Jacksonville Center
Fri 07:04:31 PM 30.6339 -82.6656 North 443 510 35,000 50 Climbing Jacksonville Center
Fri 07:05:32 PM 30.7633 -82.6436 North 443 510 35,000  Level Jacksonville Center
Fri 07:06:32 PM 30.8883 -82.6214 North 448 516 35,000  Level Jacksonville Center
Fri 07:07:32 PM 31.0158 -82.6017 North 453 521 35,000  Level Jacksonville Center
Fri 07:08:32 PM 31.1411 -82.5794 North 453 521 35,000 -50 Level Jacksonville Center
Fri 07:09:32 PM 31.2725 -82.5572 North 453 521 34,900  Descending Jacksonville Center
Fri 07:10:32 PM 31.3997 -82.5322 10° North 459 528 35,000 50 Climbing Jacksonville Center
Fri 07:11:32 PM 31.5250 -82.5100 North 459 528 35,000  Level Jacksonville Center
Fri 07:12:32 PM 31.6564 -82.4875 North 465 535 35,000  Level Jacksonville Center
Fri 07:14:29 PM 31.9139 -82.4508 North 461 531 35,000 -68 Level Atlanta Center
Fri 07:15:29 PM 32.0431 -82.4317 North 467 537 34,800  Descending Atlanta Center
Fri 07:16:29 PM 32.1761 -82.4094 North 467 537 35,000 100 Climbing Atlanta Center
Fri 07:17:29 PM 32.3053 -82.3825 10° North 467 537 35,000  Level Atlanta Center
Fri 07:18:29 PM 32.4367 -82.3653 North 467 537 35,000  Level Atlanta Center
Fri 07:19:29 PM 32.5697 -82.3456 North 467 537 35,000  Level Atlanta Center
Fri 07:20:29 PM 32.7178 -82.3231 North 476 548 35,000  Level Atlanta Center
Fri 07:21:29 PM 32.8511 -82.3006 North 482 555 35,000  Level Atlanta Center
Fri 07:22:29 PM 32.9864 -82.2781 North 482 555 35,000  Level Atlanta Center
Fri 07:23:29 PM 33.1239 -82.2581 North 482 555 35,000  Level Atlanta Center
Fri 07:24:29 PM 33.2550 -82.2353 North 482 555 35,000  Level Atlanta Center
Fri 07:25:29 PM 33.3925 -82.2125 North 482 555 35,000  Level Atlanta Center
Fri 07:26:29 PM 33.5297 -82.1897 North 482 555 35,000  Level Atlanta Center
Fri 07:27:29 PM 33.6650 -82.1644 North 482 555 35,000  Level Atlanta Center
Fri 07:28:29 PM 33.8047 -82.1439 North 487 560 35,000  Level Atlanta Center
Fri 07:29:29 PM 33.9294 -82.1211 North 495 570 35,000  Level Atlanta Center
Fri 07:30:29 PM 34.0689 -82.0978 North 502 578 35,000  Level Atlanta Center
Fri 07:31:29 PM 34.2044 -82.0747 North 497 572 35,000  Level Atlanta Center
Fri 07:32:29 PM 34.3458 -82.0511 North 497 572 35,000  Level Atlanta Center
Fri 07:33:29 PM 34.4853 -82.0253 North 502 578 35,000  Level Atlanta Center
Fri 07:34:29 PM 34.6289 -82.0017 North 502 578 35,000  Level Atlanta Center
Fri 07:35:29 PM 34.7683 -81.9756 North 502 578 35,000  Level Atlanta Center
Fri 07:36:29 PM 34.9242 -81.9489 North 507 583 35,000  Level Atlanta Center
Fri 07:37:29 PM 35.0681 -81.9300 North 512 589 35,000  Level Atlanta Center
Fri 07:38:29 PM 35.2097 -81.9264 North 517 595 35,000  Level Atlanta Center
Fri 07:39:29 PM 35.3431 -81.9178 North 512 589 35,000  Level Atlanta Center
Fri 07:40:29 PM 35.4892 -81.9089 North 512 589 35,000  Level Atlanta Center
Fri 07:41:29 PM 35.6350 -81.9053 North 519 597 35,000  Level Atlanta Center
Fri 07:42:29 PM 35.7767 -81.8989 North 514 592 35,000  Level Atlanta Center
Fri 07:43:29 PM 35.9414 -81.8894 North 514 592 35,000  Level Atlanta Center
Fri 07:44:29 PM 36.0872 -81.8806 North 522 601 35,000  Level Atlanta Center
Fri 07:45:29 PM 36.2333 -81.8767 North 526 605 35,000  Level Atlanta Center
Fri 07:47:12 PM 36.4764 -81.8600 North 537 618 35,000  Level Indianapolis Center
Fri 07:48:13 PM 36.6286 -81.8525 North 544 626 35,000  Level Indianapolis Center
Fri 07:49:14 PM 36.7800 -81.8456 North 546 628 35,000  Level Indianapolis Center
Fri 07:50:16 PM 36.9575 -81.8372 North 550 633 35,000  Level Indianapolis Center
Fri 07:51:18 PM 37.1103 -81.8314 North 550 633 35,000 -146 Level Indianapolis Center
Fri 07:52:19 PM 37.2644 -81.8239 North 554 638 34,700 -488 Descending Indianapolis Center
Fri 07:53:21 PM 37.4172 -81.8167 North 551 634 34,000 -341 Descending Indianapolis Center
Fri 07:54:22 PM 37.5689 -81.8083 North 546 628 34,000  Level Indianapolis Center
Fri 07:55:24 PM 37.7242 -81.8017 North 553 636 34,000  Level Indianapolis Center
Fri 07:56:26 PM 37.8847 -81.7942 North 556 640 34,000  Level Indianapolis Center
Fri 07:57:27 PM 38.0428 -81.7867 North 566 651 34,000  Level Indianapolis Center
Fri 07:58:29 PM 38.2003 -81.7786 North 565 650 34,000 -435 Level Indianapolis Center
Fri 07:59:31 PM 38.3875 -81.7956 356° North 561 646 33,100 -1,610 Descending Indianapolis Center
Fri 08:00:32 PM 38.5186 -81.8783 334° Northwest 525 604 30,700 -2,537 Descending Indianapolis Center
Fri 08:01:34 PM 38.6489 -81.9608 334° Northwest 516 594 27,900 -2,758 Descending Indianapolis Center
Fri 08:02:36 PM 38.7783 -82.0369 335° Northwest 509 586 25,000 -2,488 Descending Indianapolis Center
Fri 08:03:37 PM 38.9147 -82.0883 344° North 506 582 22,800 -1,854 Descending Indianapolis Center
Fri 08:04:39 PM 39.0403 -82.1400 342° North 474 545 21,200 -2,032 Descending Indianapolis Center
Fri 08:05:41 PM 39.1650 -82.1914 342° North 466 536 18,600 -2,585 Descending Indianapolis Center
Fri 08:06:42 PM 39.2869 -82.2375 344° North 458 527 15,900 -2,752 Descending Indianapolis Center
Fri 08:07:30 PM 39.3886 -82.2800 342° North 422 486 13,600 -2,471 Descending Indianapolis Center
Fri 08:08:24 PM 39.4764 -82.3133 344° North 377 434 11,700 -1,737 Descending Indianapolis Center
Fri 08:08:46 PM 39.5072 -82.3258 343° North 378 435 11,400 -716 Descending Indianapolis Center
Fri 08:09:31 PM 39.5844 -82.3572 343° North 344 396 10,900 -492 Descending Indianapolis Center
Fri 08:09:47 PM 39.6003 -82.3642 341° North 351 404 10,900 98 Level Indianapolis Center
Fri 08:10:32 PM 39.6661 -82.3928 342° North 293 337 11,000  Climbing Indianapolis Center
Fri 08:10:49 PM 39.6789 -82.4019 331° Northwest 300 345 10,900 -1,900 Descending Indianapolis Center
Fri 08:11:32 PM 39.7247 -82.4558 318° Northwest 267 307 9,100 -2,032 Descending Indianapolis Center
Fri 08:11:51 PM 39.7356 -82.4681 319° Northwest 272 313 8,800 -1,869 Descending Indianapolis Center
Fri 08:12:33 PM 39.7792 -82.5186 318° Northwest 262 302 7,200 -1,967 Descending Indianapolis Center
Fri 08:12:52 PM 39.7894 -82.5300 320° Northwest 258 297 6,800 -1,343 Descending Indianapolis Center
Fri 08:13:40 PM 39.8378 -82.5847 319° Northwest 237 273 5,700 -1,278 Descending Indianapolis Center
Fri 08:14:40 PM 39.8806 -82.6356 318° Northwest 203 234 4,500 -1,184 Descending Indianapolis Center
Fri 08:14:56 PM 39.8906 -82.6453 323° Northwest 209 241 4,200 -1,247 Descending Indianapolis Center
Fri 08:15:57 PM 39.9289 -82.6903 318° Northwest 192 221 2,900 -814 Descending Indianapolis Center
Fri 08:16:54 PM 39.9661 -82.7347 318° Northwest 181 208 2,600 -410 Descending Indianapolis Center
Fri 08:17:54 PM 39.9875 -82.7889 297° West 176 203 2,100 -606 Descending Indianapolis Center
Fri 08:18:43 PM 39.9914 -82.8272 278° West 134 154 1,500 -706 Descending Indianapolis Center
Fri 08:19:02 PM 39.9908 -82.8392 267° West 151 174 1,300 -296 Descending Indianapolis Center
Fri 08:20:04 PM 39.9953 -82.8933 276° West 145 167 1,100 -194 Descending Indianapolis Center

Login

Don't have an account? Register now (free) for customized features, flight alerts, and more!